createdAt,value
2018-02-13T00:00:06.405Z,97217
2018-02-13T00:02:34.741Z,97213
2018-02-13T00:05:03.128Z,97206
2018-02-13T00:07:31.455Z,97216
2018-02-13T00:09:59.809Z,97214
2018-02-13T00:12:28.148Z,97213
2018-02-13T00:14:56.507Z,97208
2018-02-13T00:17:24.809Z,97201
2018-02-13T00:19:53.123Z,97201
2018-02-13T00:22:21.466Z,97203
2018-02-13T00:24:49.783Z,97202
2018-02-13T00:27:18.094Z,97195
2018-02-13T00:29:46.434Z,97199
2018-02-13T00:32:14.782Z,97198
2018-02-13T00:34:43.076Z,97191
2018-02-13T00:37:11.397Z,97190
2018-02-13T00:39:39.725Z,97188
2018-02-13T00:42:08.027Z,97191
2018-02-13T00:44:36.374Z,97187
2018-02-13T00:47:04.710Z,97179
2018-02-13T00:49:33.044Z,97182
2018-02-13T00:52:01.361Z,97180
2018-02-13T00:54:29.709Z,97180
2018-02-13T00:56:58.013Z,97189
2018-02-13T00:59:26.349Z,97189
2018-02-13T01:01:54.687Z,97183
2018-02-13T01:04:23.137Z,97184
2018-02-13T01:06:51.496Z,97194
2018-02-13T01:09:19.811Z,97185
2018-02-13T01:11:48.155Z,97195
2018-02-13T01:14:16.476Z,97189
2018-02-13T01:16:44.793Z,97191
2018-02-13T01:19:13.139Z,97196
2018-02-13T01:21:41.441Z,97195
2018-02-13T01:24:16.813Z,97188
2018-02-13T01:26:45.141Z,97190
2018-02-13T01:29:13.455Z,97190
2018-02-13T01:31:41.830Z,97188
2018-02-13T01:34:10.186Z,97191
2018-02-13T01:36:38.565Z,97186
2018-02-13T01:39:06.869Z,97186
2018-02-13T01:41:35.193Z,97180
2018-02-13T01:44:03.535Z,97174
2018-02-13T01:46:31.849Z,97179
2018-02-13T01:49:00.238Z,97187
2018-02-13T01:51:28.553Z,97182
2018-02-13T01:53:56.863Z,97188
2018-02-13T01:56:25.239Z,97189
2018-02-13T01:58:53.570Z,97184
2018-02-13T02:01:21.927Z,97186
2018-02-13T02:03:50.246Z,97187
2018-02-13T02:06:18.578Z,97186
2018-02-13T02:08:46.907Z,97184
2018-02-13T02:11:15.273Z,97190
2018-02-13T02:13:43.625Z,97189
2018-02-13T02:16:11.937Z,97188
2018-02-13T02:18:40.237Z,97184
2018-02-13T02:21:08.550Z,97183
2018-02-13T02:23:36.895Z,97183
2018-02-13T02:26:05.236Z,97181
2018-02-13T02:28:33.566Z,97181
2018-02-13T02:31:01.890Z,97187
2018-02-13T02:33:30.240Z,97188
2018-02-13T02:35:58.574Z,97187
2018-02-13T02:38:26.938Z,97186
2018-02-13T02:40:55.283Z,97192
2018-02-13T02:43:23.591Z,97193
2018-02-13T02:45:51.983Z,97193
2018-02-13T02:48:20.288Z,97191
2018-02-13T02:50:48.620Z,97186
2018-02-13T02:53:16.929Z,97192
2018-02-13T02:55:45.254Z,97190
2018-02-13T02:58:13.587Z,97192
2018-02-13T03:00:41.907Z,97190
2018-02-13T03:03:10.253Z,97186
2018-02-13T03:05:38.581Z,97179
2018-02-13T03:08:06.961Z,97174
2018-02-13T03:10:35.302Z,97172
2018-02-13T03:13:03.664Z,97167
2018-02-13T03:15:32.087Z,97169
2018-02-13T03:18:00.409Z,97167
2018-02-13T03:20:28.744Z,97165
2018-02-13T03:22:57.069Z,97162
2018-02-13T03:25:25.376Z,97169
2018-02-13T03:27:53.781Z,97161
2018-02-13T03:30:22.150Z,97166
2018-02-13T03:32:50.474Z,97160
2018-02-13T03:35:18.808Z,97162
2018-02-13T03:37:47.110Z,97165
2018-02-13T03:40:15.561Z,97166
2018-02-13T03:42:43.886Z,97165
2018-02-13T03:45:12.205Z,97172
2018-02-13T03:47:40.534Z,97175
2018-02-13T03:50:08.858Z,97173
2018-02-13T03:52:37.204Z,97178
2018-02-13T03:55:05.514Z,97174
2018-02-13T03:57:33.836Z,97171
2018-02-13T04:00:02.203Z,97179
2018-02-13T04:02:30.608Z,97181
2018-02-13T04:04:58.909Z,97186
2018-02-13T04:07:27.269Z,97182
2018-02-13T04:09:55.568Z,97186
2018-02-13T04:12:23.889Z,97182
2018-02-13T04:14:52.253Z,97183
2018-02-13T04:17:20.606Z,97188
2018-02-13T04:19:48.930Z,97189
2018-02-13T04:22:17.256Z,97184
2018-02-13T04:24:45.802Z,97185
2018-02-13T04:27:14.691Z,97185
2018-02-13T04:29:42.990Z,97186
2018-02-13T04:32:11.397Z,97182
2018-02-13T04:34:39.735Z,97184
2018-02-13T04:37:08.067Z,97183
2018-02-13T04:39:36.371Z,97181
2018-02-13T04:42:04.733Z,97180
2018-02-13T04:44:33.068Z,97180
2018-02-13T04:47:01.397Z,97183
2018-02-13T04:49:29.726Z,97183
2018-02-13T04:54:33.200Z,97175
2018-02-13T04:57:02.278Z,97174
2018-02-13T04:59:30.739Z,97178
2018-02-13T05:01:59.097Z,97176
2018-02-13T05:04:27.440Z,97174
2018-02-13T05:06:55.930Z,97173
2018-02-13T05:09:24.403Z,97172
2018-02-13T05:11:52.698Z,97175
2018-02-13T05:14:20.996Z,97164
2018-02-13T05:16:50.255Z,97166
2018-02-13T05:19:18.618Z,97172
2018-02-13T05:21:46.902Z,97172
2018-02-13T05:24:15.259Z,97166
2018-02-13T05:26:43.568Z,97165
2018-02-13T05:29:11.921Z,97167
2018-02-13T05:31:40.254Z,97170
2018-02-13T05:34:08.586Z,97168
2018-02-13T05:36:36.907Z,97168
2018-02-13T05:39:05.272Z,97170
2018-02-13T05:41:33.595Z,97176
2018-02-13T05:44:01.913Z,97172
2018-02-13T05:46:30.344Z,97179
2018-02-13T05:48:58.774Z,97185
2018-02-13T05:51:27.147Z,97184
2018-02-13T05:53:55.601Z,97185
2018-02-13T05:56:23.938Z,97189
2018-02-13T05:58:52.261Z,97189
2018-02-13T06:01:20.716Z,97188
2018-02-13T06:03:49.064Z,97192
2018-02-13T06:06:17.396Z,97189
2018-02-13T06:08:45.720Z,97197
2018-02-13T06:11:14.027Z,97194
2018-02-13T06:13:42.430Z,97198
2018-02-13T06:16:10.942Z,97204
2018-02-13T06:18:39.293Z,97202
2018-02-13T06:21:08.683Z,97200
2018-02-13T06:23:37.040Z,97205
2018-02-13T06:26:05.438Z,97205
2018-02-13T06:28:34.004Z,97207
2018-02-13T06:31:03.495Z,97203
2018-02-13T06:33:31.949Z,97203
2018-02-13T06:36:00.291Z,97207
2018-02-13T06:38:29.240Z,97207
2018-02-13T06:40:57.584Z,97206
2018-02-13T06:43:25.907Z,97213
2018-02-13T06:45:54.251Z,97215
2018-02-13T06:48:22.581Z,97219
2018-02-13T06:50:50.904Z,97216
2018-02-13T06:53:19.263Z,97223
2018-02-13T06:55:48.691Z,97220
2018-02-13T06:58:17.045Z,97224
2018-02-13T07:00:43.808Z,97226
2018-02-13T07:03:11.310Z,97214
2018-02-13T07:05:38.003Z,97207
2018-02-13T07:08:04.775Z,97213
2018-02-13T07:10:32.158Z,97217
2018-02-13T07:12:58.806Z,97212
2018-02-13T07:15:25.470Z,97216
2018-02-13T07:17:52.147Z,97215
2018-02-13T07:20:19.546Z,97214
2018-02-13T07:22:46.234Z,97212
2018-02-13T07:25:13.671Z,97216
2018-02-13T07:27:40.369Z,97219
2018-02-13T07:30:07.083Z,97217
2018-02-13T07:32:34.568Z,97212
2018-02-13T07:35:01.980Z,97215
2018-02-13T07:37:28.657Z,97207
2018-02-13T07:39:56.068Z,97210
2018-02-13T07:42:22.770Z,97217
2018-02-13T07:44:50.176Z,97211
2018-02-13T07:47:16.892Z,97215
2018-02-13T07:49:43.573Z,97218
2018-02-13T07:52:10.230Z,97214
2018-02-13T07:54:36.910Z,97213
2018-02-13T07:57:03.602Z,97215
2018-02-13T07:59:30.294Z,97205
2018-02-13T08:01:57.006Z,97205
2018-02-13T08:04:23.690Z,97200
2018-02-13T08:06:50.365Z,97205
2018-02-13T08:09:18.708Z,97207
2018-02-13T08:11:47.034Z,97201
2018-02-13T08:14:15.422Z,97205
2018-02-13T08:16:43.777Z,97202
2018-02-13T08:19:12.106Z,97205
2018-02-13T08:21:40.606Z,97203
2018-02-13T08:24:08.926Z,97206
2018-02-13T08:26:37.245Z,97200
2018-02-13T08:29:05.668Z,97206
2018-02-13T08:31:33.992Z,97207
2018-02-13T08:34:02.330Z,97208
2018-02-13T08:36:30.662Z,97205
2018-02-13T08:38:59.019Z,97201
2018-02-13T08:41:27.354Z,97202
2018-02-13T08:43:55.672Z,97196
2018-02-13T08:46:24.072Z,97192
2018-02-13T08:48:52.401Z,97188
2018-02-13T08:51:20.751Z,97189
2018-02-13T08:53:49.098Z,97185
2018-02-13T08:56:17.470Z,97187
2018-02-13T08:58:45.858Z,97183
2018-02-13T09:01:14.184Z,97177
2018-02-13T09:03:42.681Z,97173
2018-02-13T09:06:11.002Z,97166
2018-02-13T09:08:39.351Z,97161
2018-02-13T09:11:07.727Z,97158
2018-02-13T09:13:36.077Z,97159
2018-02-13T09:16:04.429Z,97159
2018-02-13T09:18:32.774Z,97157
2018-02-13T09:21:01.142Z,97157
2018-02-13T09:23:29.602Z,97159
2018-02-13T09:25:57.997Z,97156
2018-02-13T09:28:26.344Z,97153
2018-02-13T09:30:54.674Z,97155
2018-02-13T09:33:23.043Z,97153
2018-02-13T09:35:51.365Z,97150
2018-02-13T09:38:19.838Z,97154
2018-02-13T09:40:48.230Z,97154
2018-02-13T09:43:16.568Z,97160
2018-02-13T09:45:44.957Z,97161
2018-02-13T09:48:13.383Z,97161
2018-02-13T09:50:41.732Z,97160
2018-02-13T09:53:10.117Z,97157
2018-02-13T09:55:38.433Z,97159
2018-02-13T09:58:06.800Z,97161
2018-02-13T10:00:35.149Z,97159
2018-02-13T10:03:03.495Z,97155
2018-02-13T10:05:31.858Z,97159
2018-02-13T10:08:00.193Z,97159
2018-02-13T10:10:29.589Z,97153
2018-02-13T10:12:57.974Z,97150
2018-02-13T10:15:26.433Z,97151
2018-02-13T10:17:54.874Z,97145
2018-02-13T10:20:23.270Z,97147
2018-02-13T10:22:51.706Z,97147
2018-02-13T10:25:20.119Z,97149
2018-02-13T10:27:48.436Z,97145
2018-02-13T10:30:16.788Z,97139
2018-02-13T10:32:45.169Z,97135
2018-02-13T10:35:13.478Z,97137
2018-02-13T10:37:41.839Z,97131
2018-02-13T10:40:10.172Z,97126
2018-02-13T10:42:38.504Z,97126
2018-02-13T10:45:06.877Z,97126
2018-02-13T10:47:35.365Z,97130
2018-02-13T10:50:03.759Z,97122
2018-02-13T10:52:32.158Z,97119
2018-02-13T10:55:00.561Z,97121
2018-02-13T10:57:28.902Z,97119
2018-02-13T10:59:57.244Z,97122
2018-02-13T11:02:25.699Z,97122
2018-02-13T11:04:54.020Z,97110
2018-02-13T11:07:22.414Z,97115
2018-02-13T11:09:50.785Z,97107
2018-02-13T11:12:19.149Z,97113
2018-02-13T11:14:47.581Z,97108
2018-02-13T11:17:16.001Z,97100
2018-02-13T11:19:44.493Z,97103
2018-02-13T11:22:12.870Z,97095
2018-02-13T11:24:41.250Z,97096
2018-02-13T11:27:09.599Z,97088
2018-02-13T11:29:38.022Z,97086
2018-02-13T11:32:06.342Z,97088
2018-02-13T11:34:34.672Z,97089
2018-02-13T11:37:03.048Z,97083
2018-02-13T11:39:32.502Z,97081
2018-02-13T11:42:00.881Z,97078
2018-02-13T11:44:29.268Z,97076
2018-02-13T11:46:57.624Z,97074
2018-02-13T11:49:25.991Z,97074
2018-02-13T11:51:54.329Z,97072
2018-02-13T11:54:22.684Z,97068
2018-02-13T11:56:51.076Z,97066
2018-02-13T11:59:19.451Z,97065
2018-02-13T12:01:48.075Z,97057
2018-02-13T12:04:16.485Z,97055
2018-02-13T12:06:44.862Z,97045
2018-02-13T12:09:13.211Z,97044
2018-02-13T12:11:41.537Z,97043
2018-02-13T12:14:09.885Z,97041
2018-02-13T12:16:38.230Z,97036
2018-02-13T12:19:06.552Z,97038
2018-02-13T12:21:34.869Z,97029
2018-02-13T12:24:03.198Z,97032
2018-02-13T12:26:31.549Z,97033
2018-02-13T12:28:59.896Z,97020
2018-02-13T12:31:29.356Z,97023
2018-02-13T12:33:57.738Z,97019
2018-02-13T12:36:26.143Z,97015
2018-02-13T12:38:54.525Z,97013
2018-02-13T12:41:22.915Z,97009
2018-02-13T12:43:51.251Z,97010
2018-02-13T12:46:19.599Z,97004
2018-02-13T12:48:47.893Z,97004
2018-02-13T12:51:16.256Z,97001
2018-02-13T12:53:44.680Z,96992
2018-02-13T12:56:13.079Z,96988
2018-02-13T12:58:41.501Z,96995
2018-02-13T13:01:09.893Z,96992
2018-02-13T13:03:38.315Z,96994
2018-02-13T13:06:07.601Z,96992
2018-02-13T13:08:35.938Z,96991
2018-02-13T13:11:04.493Z,96991
2018-02-13T13:13:32.860Z,96989
2018-02-13T13:16:01.258Z,96989
2018-02-13T13:18:29.637Z,96990
2018-02-13T13:20:58.041Z,96984
2018-02-13T13:23:26.424Z,96987
2018-02-13T13:25:54.778Z,96980
2018-02-13T13:28:23.245Z,96984
2018-02-13T13:30:51.629Z,96984
2018-02-13T13:33:20.067Z,96978
2018-02-13T13:35:48.457Z,96974
2018-02-13T13:38:16.824Z,96976
2018-02-13T13:40:45.239Z,96976
2018-02-13T13:43:13.583Z,96970
2018-02-13T13:45:41.949Z,96967
2018-02-13T13:48:10.329Z,96969
2018-02-13T13:50:38.686Z,96965
2018-02-13T13:53:07.187Z,96962
2018-02-13T13:55:35.545Z,96958
2018-02-13T13:58:03.937Z,96966
2018-02-13T14:00:32.506Z,96960
2018-02-13T14:03:00.888Z,96959
2018-02-13T14:05:29.482Z,96956
2018-02-13T14:07:58.255Z,96957
2018-02-13T14:10:27.909Z,96958
2018-02-13T14:12:56.320Z,96955
2018-02-13T14:15:25.764Z,96958
2018-02-13T14:17:54.148Z,96951
2018-02-13T14:20:23.580Z,96954
2018-02-13T14:22:52.014Z,96956
2018-02-13T14:25:21.239Z,96958
2018-02-13T14:27:49.772Z,96957
2018-02-13T14:30:18.262Z,96959
2018-02-13T14:32:47.776Z,96958
2018-02-13T14:35:16.140Z,96955
2018-02-13T14:37:45.179Z,96958
2018-02-13T14:40:13.556Z,96956
2018-02-13T14:42:42.239Z,96954
2018-02-13T14:45:10.590Z,96954
2018-02-13T14:47:38.952Z,96949
2018-02-13T14:50:07.317Z,96959
2018-02-13T14:52:35.658Z,96952
2018-02-13T14:55:05.093Z,96947
2018-02-13T14:57:33.449Z,96944
2018-02-13T15:00:01.880Z,96946
2018-02-13T15:02:30.389Z,96947
2018-02-13T15:04:58.768Z,96946
2018-02-13T15:07:27.173Z,96947
2018-02-13T15:09:55.557Z,96937
2018-02-13T15:12:23.948Z,96941
2018-02-13T15:14:52.329Z,96942
2018-02-13T15:17:26.698Z,96938
2018-02-13T15:19:55.081Z,96942
2018-02-13T15:22:23.421Z,96936
2018-02-13T15:24:51.816Z,96945
2018-02-13T15:27:20.215Z,96941
2018-02-13T15:29:48.578Z,96946
2018-02-13T15:32:16.915Z,96941
2018-02-13T15:34:45.279Z,96942
2018-02-13T15:37:13.578Z,96943
2018-02-13T15:39:42.752Z,96943
2018-02-13T15:42:11.112Z,96941
2018-02-13T15:44:39.433Z,96940
2018-02-13T15:47:09.637Z,96941
2018-02-13T15:49:37.968Z,96945
2018-02-13T15:52:06.345Z,96941
2018-02-13T15:54:34.714Z,96940
2018-02-13T15:57:03.098Z,96945
2018-02-13T15:59:38.578Z,96940
2018-02-13T16:02:06.968Z,96938
2018-02-13T16:04:35.309Z,96939
2018-02-13T16:07:03.693Z,96942
2018-02-13T16:09:32.009Z,96935
2018-02-13T16:12:00.598Z,96934
2018-02-13T16:14:28.024Z,96937
2018-02-13T16:16:55.432Z,96937
2018-02-13T16:19:22.734Z,96934
2018-02-13T16:21:49.608Z,96934
2018-02-13T16:24:17.650Z,96935
2018-02-13T16:26:44.376Z,96931
2018-02-13T16:29:11.046Z,96934
2018-02-13T16:31:37.750Z,96936
2018-02-13T16:34:04.481Z,96932
2018-02-13T16:36:31.260Z,96936
2018-02-13T16:38:58.088Z,96938
2018-02-13T16:41:24.801Z,96933
2018-02-13T16:43:51.517Z,96932
2018-02-13T16:46:18.986Z,96933
2018-02-13T16:48:46.470Z,96929
2018-02-13T16:51:13.202Z,96930
2018-02-13T16:53:40.658Z,96933
2018-02-13T16:56:08.145Z,96934
2018-02-13T16:58:34.921Z,96934
2018-02-13T17:01:01.763Z,96932
2018-02-13T17:03:28.694Z,96935
2018-02-13T17:05:55.636Z,96935
2018-02-13T17:08:22.343Z,96939
2018-02-13T17:10:49.807Z,96940
2018-02-13T17:13:17.314Z,96938
2018-02-13T17:15:44.027Z,96940
2018-02-13T17:18:11.731Z,96938
2018-02-13T17:20:38.463Z,96940
2018-02-13T17:23:05.167Z,96940
2018-02-13T17:25:32.611Z,96941
2018-02-13T17:28:06.331Z,96941
2018-02-13T17:30:33.836Z,96942
2018-02-13T17:33:00.633Z,96943
2018-02-13T17:35:28.168Z,96940
2018-02-13T17:37:54.897Z,96943
2018-02-13T17:40:21.570Z,96946
2018-02-13T17:42:48.451Z,96947
2018-02-13T17:45:15.973Z,96949
2018-02-13T17:47:42.740Z,96944
2018-02-13T17:50:10.309Z,96949
2018-02-13T17:52:37.730Z,96949
2018-02-13T17:55:04.467Z,96954
2018-02-13T17:57:31.171Z,96956
2018-02-13T17:59:58.706Z,96955
2018-02-13T18:02:25.561Z,96959
2018-02-13T18:04:52.460Z,96957
2018-02-13T18:07:19.309Z,96955
2018-02-13T18:09:45.990Z,96959
2018-02-13T18:12:12.758Z,96961
2018-02-13T18:14:40.213Z,96961
2018-02-13T18:17:07.755Z,96961
2018-02-13T18:19:34.862Z,96969
2018-02-13T18:22:01.557Z,96966
2018-02-13T18:24:28.316Z,96969
2018-02-13T18:26:55.769Z,96971
2018-02-13T18:29:22.521Z,96966
2018-02-13T18:31:49.991Z,96970
2018-02-13T18:34:17.625Z,96973
2018-02-13T18:36:44.437Z,96972
2018-02-13T18:39:11.988Z,96967
2018-02-13T18:41:39.794Z,96963
2018-02-13T18:44:06.691Z,96968
2018-02-13T18:46:33.455Z,96968
2018-02-13T18:49:00.306Z,96965
2018-02-13T18:51:27.118Z,96964
2018-02-13T18:53:55.523Z,96964
2018-02-13T18:56:22.311Z,96970
2018-02-13T18:58:49.177Z,96968
2018-02-13T19:01:16.041Z,96969
2018-02-13T19:03:43.474Z,96971
2018-02-13T19:06:10.254Z,96978
2018-02-13T19:08:37.038Z,96981
2018-02-13T19:11:03.771Z,96979
2018-02-13T19:13:30.506Z,96981
2018-02-13T19:15:57.501Z,96973
2018-02-13T19:18:24.346Z,96973
2018-02-13T19:20:51.436Z,96976
2018-02-13T19:23:18.177Z,96974
2018-02-13T19:25:44.981Z,96969
2018-02-13T19:28:11.714Z,96967
2018-02-13T19:30:38.410Z,96962
2018-02-13T19:33:05.930Z,96962
2018-02-13T19:35:32.709Z,96961
2018-02-13T19:38:00.223Z,96958
2018-02-13T19:40:26.984Z,96963
2018-02-13T19:42:54.312Z,96962
2018-02-13T19:45:21.038Z,96963
2018-02-13T19:47:48.312Z,96966
2018-02-13T19:50:15.172Z,96958
2018-02-13T19:52:41.911Z,96963
2018-02-13T19:55:08.661Z,96965
2018-02-13T19:57:35.481Z,96962
2018-02-13T20:00:02.314Z,96964
2018-02-13T20:02:29.163Z,96963
2018-02-13T20:04:56.644Z,96962
2018-02-13T20:07:30.390Z,96958
2018-02-13T20:09:57.131Z,96953
2018-02-13T20:12:23.822Z,96959
2018-02-13T20:14:51.238Z,96959
2018-02-13T20:17:17.999Z,96956
2018-02-13T20:19:44.754Z,96954
2018-02-13T20:22:12.216Z,96953
2018-02-13T20:24:40.888Z,96951
2018-02-13T20:27:07.652Z,96954
2018-02-13T20:29:36.677Z,96949
2018-02-13T20:32:03.365Z,96949
2018-02-13T20:34:30.229Z,96944
2018-02-13T20:36:56.972Z,96945
2018-02-13T20:39:23.701Z,96943
2018-02-13T20:41:50.426Z,96942
2018-02-13T20:44:17.115Z,96942
2018-02-13T20:46:44.581Z,96942
2018-02-13T20:49:12.096Z,96938
2018-02-13T20:51:39.005Z,96939
2018-02-13T20:54:05.750Z,96935
2018-02-13T20:56:32.566Z,96932
2018-02-13T20:58:59.283Z,96933
2018-02-13T21:01:26.131Z,96932
2018-02-13T21:03:52.937Z,96930
2018-02-13T21:06:19.658Z,96930
2018-02-13T21:08:47.182Z,96928
2018-02-13T21:11:13.996Z,96933
2018-02-13T21:13:41.948Z,96927
2018-02-13T21:16:09.408Z,96925
2018-02-13T21:18:36.954Z,96922
2018-02-13T21:21:03.839Z,96920
2018-02-13T21:23:30.959Z,96924
2018-02-13T21:25:58.434Z,96919
2018-02-13T21:28:25.901Z,96919
2018-02-13T21:30:53.369Z,96912
2018-02-13T21:33:20.823Z,96913
2018-02-13T21:35:48.310Z,96913
2018-02-13T21:38:15.015Z,96914
2018-02-13T21:40:42.554Z,96916
2018-02-13T21:43:09.321Z,96914
2018-02-13T21:45:40.026Z,96916
2018-02-13T21:48:06.701Z,96912
2018-02-13T21:50:38.827Z,96917
2018-02-13T21:53:10.501Z,96915
2018-02-13T21:55:37.377Z,96917
2018-02-13T21:58:04.158Z,96918
2018-02-13T22:00:30.847Z,96916
2018-02-13T22:02:59.622Z,96915
2018-02-13T22:05:26.361Z,96919
2018-02-13T22:07:53.077Z,96911
2018-02-13T22:10:19.774Z,96911
2018-02-13T22:12:46.514Z,96909
2018-02-13T22:15:14.157Z,96915
2018-02-13T22:17:40.858Z,96912
2018-02-13T22:20:07.784Z,96911
2018-02-13T22:22:34.507Z,96911
2018-02-13T22:25:01.220Z,96911
2018-02-13T22:27:28.175Z,96907
2018-02-13T22:29:54.993Z,96905
2018-02-13T22:32:21.687Z,96902
2018-02-13T22:34:48.377Z,96900
2018-02-13T22:37:15.815Z,96898
2018-02-13T22:39:42.678Z,96897
2018-02-13T22:42:10.152Z,96898
2018-02-13T22:44:36.967Z,96894
2018-02-13T22:47:04.451Z,96891
2018-02-13T22:49:32.005Z,96894
2018-02-13T22:51:58.706Z,96893
2018-02-13T22:54:25.493Z,96888
2018-02-13T22:56:52.956Z,96891
2018-02-13T22:59:20.392Z,96894
2018-02-13T23:01:47.003Z,96890
2018-02-13T23:04:13.874Z,96894
2018-02-13T23:06:40.673Z,96890
2018-02-13T23:09:07.595Z,96892
2018-02-13T23:11:35.090Z,96901
2018-02-13T23:14:01.897Z,96892
2018-02-13T23:16:29.376Z,96897
2018-02-13T23:18:56.821Z,96905
2018-02-13T23:21:24.328Z,96903
2018-02-13T23:23:50.983Z,96902
2018-02-13T23:26:17.939Z,96894
2018-02-13T23:28:44.644Z,96897
2018-02-13T23:31:11.315Z,96891
2018-02-13T23:33:38.103Z,96893
2018-02-13T23:36:05.538Z,96892
2018-02-13T23:38:32.395Z,96894
2018-02-13T23:40:59.093Z,96891
2018-02-13T23:43:25.790Z,96898
2018-02-13T23:45:52.593Z,96893
2018-02-13T23:48:19.297Z,96894
2018-02-13T23:50:46.793Z,96892
2018-02-13T23:53:13.497Z,96889
2018-02-13T23:55:40.912Z,96892
2018-02-13T23:58:07.620Z,96888
